地図

経路データ

SID SEASON NUMBER BASIN SUBBASIN NAME ISO_TIME NATURE LAT LON WMO_WIND WMO_PRES WMO_AGENCY TRACK_TYPE DIST2LAND LANDFALL IFLAG USA_AGENCY USA_ATCF_ID USA_LAT USA_LON USA_RECORD USA_STATUS USA_WIND USA_PRES USA_SSHS USA_R34_NE USA_R34_SE USA_R34_SW USA_R34_NW USA_R50_NE USA_R50_SE USA_R50_SW USA_R50_NW USA_R64_NE USA_R64_SE USA_R64_SW USA_R64_NW USA_POCI USA_ROCI USA_RMW USA_EYE TOKYO_LAT TOKYO_LON TOKYO_GRADE TOKYO_WIND TOKYO_PRES TOKYO_R50_DIR TOKYO_R50_LONG TOKYO_R50_SHORT TOKYO_R30_DIR TOKYO_R30_LONG TOKYO_R30_SHORT TOKYO_LAND CMA_LAT CMA_LON CMA_CAT CMA_WIND CMA_PRES HKO_LAT HKO_LON HKO_CAT HKO_WIND HKO_PRES NEWDELHI_LAT NEWDELHI_LON NEWDELHI_GRADE NEWDELHI_WIND NEWDELHI_PRES NEWDELHI_CI NEWDELHI_DP NEWDELHI_POCI REUNION_LAT REUNION_LON REUNION_TYPE REUNION_WIND REUNION_PRES REUNION_TNUM REUNION_CI REUNION_RMW REUNION_R34_NE REUNION_R34_SE REUNION_R34_SW REUNION_R34_NW REUNION_R50_NE REUNION_R50_SE REUNION_R50_SW REUNION_R50_NW REUNION_R64_NE REUNION_R64_SE REUNION_R64_SW REUNION_R64_NW BOM_LAT BOM_LON BOM_TYPE BOM_WIND BOM_PRES BOM_TNUM BOM_CI BOM_RMW BOM_R34_NE BOM_R34_SE BOM_R34_SW BOM_R34_NW BOM_R50_NE BOM_R50_SE BOM_R50_SW BOM_R50_NW BOM_R64_NE BOM_R64_SE BOM_R64_SW BOM_R64_NW BOM_ROCI BOM_POCI BOM_EYE BOM_POS_METHOD BOM_PRES_METHOD NADI_LAT NADI_LON NADI_CAT NADI_WIND NADI_PRES WELLINGTON_LAT WELLINGTON_LON WELLINGTON_WIND WELLINGTON_PRES DS824_LAT DS824_LON DS824_STAGE DS824_WIND DS824_PRES TD9636_LAT TD9636_LON TD9636_STAGE TD9636_WIND TD9636_PRES TD9635_LAT TD9635_LON TD9635_WIND TD9635_PRES TD9635_ROCI NEUMANN_LAT NEUMANN_LON NEUMANN_CLASS NEUMANN_WIND NEUMANN_PRES MLC_LAT MLC_LON MLC_CLASS MLC_WIND MLC_PRES USA_GUST BOM_GUST BOM_GUST_PER REUNION_GUST REUNION_GUST_PER USA_SEAHGT USA_SEARAD_NE USA_SEARAD_SE USA_SEARAD_SW USA_SEARAD_NW STORM_SPEED STORM_DIR
1965294N13083 1965 111 NI BB NOT_NAMED 1965-10-20 18:00:00 TS 12.6000 83.2000 main 324 321 O________O____ jtwc_io IO101965 12.6000 83.2000 -1 12.6000 83.2000 TC 2 31
1965294N13083 1965 111 NI BB NOT_NAMED 1965-10-20 21:00:00 TS 12.6900 83.2500 main 332 329 P________P____ IO101965 12.6900 83.2500 -1 12.6900 83.2500 TC 2 27
1965294N13083 1965 111 NI BB NOT_NAMED 1965-10-21 00:00:00 TS 12.8000 83.3000 main 329 328 O________O____ jtwc_io IO101965 12.8000 83.3000 -1 12.8000 83.3000 TC 25 3 19
1965294N13083 1965 111 NI BB NOT_NAMED 1965-10-21 03:00:00 TS 12.9378 83.3445 main 328 326 P________PO___ IO101965 12.9425 83.3500 -1 12.9425 83.3500 TC 25 12.9000 83.3000 1 3 16
1965294N13083 1965 111 NI BB NOT_NAMED 1965-10-21 06:00:00 TS 13.0994 83.3940 main 336 335 O________OP___ jtwc_io IO101965 13.1000 83.4000 -1 13.1000 83.4000 TC 25 13.0969 83.3702 1 3 17
1965294N13083 1965 111 NI BB NOT_NAMED 1965-10-21 09:00:00 TS 13.2595 83.4425 main 335 335 P________PP___ IO101965 13.2500 83.4425 -1 13.2500 83.4425 TC 25 13.2850 83.4424 1 3 19
1965294N13083 1965 111 NI BB NOT_NAMED 1965-10-21 12:00:00 TS 13.4185 83.5061 main 346 346 O________OP___ jtwc_io IO101965 13.4000 83.5000 -1 13.4000 83.5000 TC 25 13.4556 83.5183 1 3 25
1965294N13083 1965 111 NI BB NOT_NAMED 1965-10-21 15:00:00 TS 13.5717 83.5950 main 356 356 P________PO___ IO101965 13.5575 83.5925 -1 13.5575 83.5925 TC 25 13.6000 83.6000 1 3 33
1965294N13083 1965 111 NI BB NOT_NAMED 1965-10-21 18:00:00 TS 13.7045 83.6963 main 357 347 O________OP___ jtwc_io IO101965 13.7000 83.7000 -1 13.7000 83.7000 TC 25 13.7134 83.6888 1 3 40
1965294N13083 1965 111 NI BB NOT_NAMED 1965-10-21 21:00:00 TS 13.8075 83.7951 main 352 342 P________PP___ IO101965 13.8075 83.8000 -1 13.8075 83.8000 TC 25 13.8075 83.7851 1 3 45
1965294N13083 1965 111 NI BB NOT_NAMED 1965-10-22 00:00:00 TS 13.8993 83.8963 main 347 343 O________OP___ jtwc_io IO101965 13.9000 83.9000 -1 13.9000 83.9000 TC 25 13.8978 83.8888 1 3 47
1965294N13083 1965 111 NI BB NOT_NAMED 1965-10-22 03:00:00 TS 13.9900 83.9950 main 343 339 P________PO___ IO101965 13.9850 83.9925 -1 13.9850 83.9925 TC 25 14.0000 84.0000 1 3 43
1965294N13083 1965 111 NI BB NOT_NAMED 1965-10-22 06:00:00 TS 14.1146 84.1059 main 339 328 O________OP___ jtwc_io IO101965 14.1000 84.1000 -1 14.1000 84.1000 TC 25 14.1437 84.1178 1 4 38
1965294N13083 1965 111 NI BB NOT_NAMED 1965-10-22 09:00:00 TS 14.3000 84.2474 main 328 325 P________PP___ IO101965 14.3000 84.2499 -1 14.3000 84.2499 TC 25 14.3000 84.2424 1 5 37
1965294N13083 1965 111 NI BB NOT_NAMED 1965-10-22 12:00:00 TS 14.4854 84.3903 main 325 317 O________OP___ jtwc_io IO101965 14.5000 84.4000 -1 14.5000 84.4000 TC 25 14.4562 84.3709 1 4 38
1965294N13083 1965 111 NI BB NOT_NAMED 1965-10-22 15:00:00 TS 14.6150 84.5050 main 325 317 P________PO___ IO101965 14.6225 84.5075 -1 14.6225 84.5075 TC 25 14.6000 84.5000 1 3 43
1965294N13083 1965 111 NI BB NOT_NAMED 1965-10-22 18:00:00 TS 14.6911 84.5856 main 325 325 O________OP___ jtwc_io IO101965 14.7000 84.6000 -1 14.7000 84.6000 TC 25 14.6732 84.5568 1 2 51
1965294N13083 1965 111 NI BB NOT_NAMED 1965-10-22 21:00:00 TS 14.7313 84.6547 main 333 326 P________PP___ IO101965 14.7274 84.6701 -1 14.7274 84.6701 TC 25 14.7391 84.6240 1 2 58
1965294N13083 1965 111 NI BB NOT_NAMED 1965-10-23 00:00:00 TS 14.8118 84.7847 main 335 328 O________OP___ jtwc_io IO101965 14.8000 84.8000 -1 14.8000 84.8000 TC 25 14.8354 84.7541 1 4 53
1965294N13083 1965 111 NI BB NOT_NAMED 1965-10-23 03:00:00 TS 14.9982 85.0168 main 339 339 P________PO___ IO101965 14.9973 85.0253 -1 14.9973 85.0253 TC 25 15.0000 85.0000 1 8 51
1965294N13083 1965 111 NI BB NOT_NAMED 1965-10-23 06:00:00 TS 15.2956 85.4090 main 348 347 O________OP___ jtwc_io IO101965 15.3000 85.4000 -1 15.3000 85.4000 TC 25 15.2869 85.4270 1 11 53
1965294N13083 1965 111 NI BB NOT_NAMED 1965-10-23 09:00:00 TS 15.6754 85.9652 main 354 349 P________PP___ IO101965 15.6927 85.9622 -1 15.6927 85.9622 TC 25 15.6409 85.9714 1 14 56
1965294N13083 1965 111 NI BB NOT_NAMED 1965-10-23 12:00:00 TS 16.0748 86.5934 main 362 362 O________OP___ jtwc_io IO101965 16.1000 86.6000 -1 16.1000 86.6000 TC 25 16.0243 86.5803 1 14 58
1965294N13083 1965 111 NI BB NOT_NAMED 1965-10-23 15:00:00 TS 16.4099 87.1719 main 384 384 P________PO___ IO101965 16.4148 87.1578 -1 16.4148 87.1578 TC 25 16.4000 87.2000 1 13 60
1965294N13083 1965 111 NI BB NOT_NAMED 1965-10-23 18:00:00 TS 16.7047 87.7182 main 393 385 O________OP___ jtwc_io IO101965 16.7000 87.7000 -1 16.7000 87.7000 TC 25 16.7140 87.7547 1 12 60
1965294N13083 1965 111 NI BB NOT_NAMED 1965-10-23 21:00:00 TS 17.0047 88.2696 main 390 383 P________PP___ IO101965 16.9999 88.2502 -1 16.9999 88.2502 TC 25 17.0145 88.3083 1 12 60
1965294N13083 1965 111 NI BB NOT_NAMED 1965-10-24 00:00:00 TS 17.3026 88.8193 main 393 392 O________OP___ jtwc_io IO101965 17.3000 88.8000 -1 17.3000 88.8000 TC 25 17.3078 88.8578 1 12 60
1965294N13083 1965 111 NI BB NOT_NAMED 1965-10-24 03:00:00 TS 17.5999 89.3668 main 414 398 P________PO___ IO101965 17.5998 89.3502 -1 17.5998 89.3502 TC 25 17.6000 89.4000 1 12 60
1965294N13083 1965 111 NI BB NOT_NAMED 1965-10-24 06:00:00 TS 17.8931 89.9124 main 398 336 O________OP___ jtwc_io IO101965 17.9000 89.9000 -1 17.9000 89.9000 TC 25 17.8793 89.9372 1 12 61
1965294N13083 1965 111 NI BB NOT_NAMED 1965-10-24 09:00:00 TS 18.1873 90.4606 main 329 267 P________PP___ IO101965 18.1999 90.4576 -1 18.1999 90.4576 TC 25 18.1619 90.4664 1 12 60
1965294N13083 1965 111 NI BB NOT_NAMED 1965-10-24 12:00:00 TS 18.4879 90.9958 main 267 206 O________OP___ jtwc_io IO101965 18.5000 91.0000 -1 18.5000 91.0000 TC 25 18.4637 90.9874 1 12 59
1965294N13083 1965 111 NI BB NOT_NAMED 1965-10-24 15:00:00 TS 18.7849 91.5053 main 206 146 P________PO___ IO101965 18.7773 91.5079 -1 18.7773 91.5079 TC 25 18.8000 91.5000 1 12 56
1965294N13083 1965 111 NI BB NOT_NAMED 1965-10-24 18:00:00 TS 19.1327 92.0020 main 146 79 O________OP___ jtwc_io IO101965 19.1000 92.0000 -1 19.1000 92.0000 TC 25 19.1818 92.0050 1 12 51
1965294N13083 1965 111 NI BB NOT_NAMED 1965-10-24 21:00:00 TS 19.5549 92.5002 main 69 11 P________PP___ IO101965 19.5203 92.4967 -1 19.5203 92.4967 TC 25 19.6011 92.5047 1 13 47
1965294N13083 1965 111 NI BB NOT_NAMED 1965-10-25 00:00:00 TS 20.0224 93.0011 main 11 0 O________OP___ jtwc_io IO101965 20.0000 93.0000 -1 20.0000 93.0000 TC 25 20.0448 93.0022 1 13 45
1965294N13083 1965 111 NI BB NOT_NAMED 1965-10-25 03:00:00 NR 20.5000 93.5000 main 0 __________O___ IO101965 -1 TC 20.5000 93.5000 1 13 44

IBTrACS Databaseについて

本データベースは、米国NOAAが公開する1842年以降の世界の熱帯低気圧のベストトラックデータアーカイブInternational Best Track Archive for Climate Stewardship (IBTrACS)を、ウェブで閲覧しやすい形式に変換したものです。

最終更新日:2021-10-27